Time;durP1;ratioP1;P1;durP2;ratioP2;P2;SDS_P1;SDS_P2;PMS_P1;PMS_P2;Temp;Humidity;BMP_temperature;BMP_pressure;BME280_temperature;BME280_humidity;BME280_pressure;Samples;Min_cycle;Max_cycle;Signal;HPM_P1;HPM_P2
2023/12/31 00:00:27;;;;;;;40.80;17.42;;;;;;;7.38;81.95;99801.78;5051201;28;20539;-69
2023/12/31 00:02:52;;;;;;;37.15;18.85;;;;;;;7.38;82.34;99799.84;5052380;28;20505;-73
2023/12/31 00:05:18;;;;;;;26.40;16.40;;;;;;;7.21;83.34;99805.97;5052435;28;20020;-73
2023/12/31 00:07:43;;;;;;;24.27;15.93;;;;;;;7.28;82.90;99806.38;5050986;28;20059;-72
2023/12/31 00:10:09;;;;;;;29.42;19.10;;;;;;;7.12;83.49;99805.84;5048255;28;20021;-73
2023/12/31 00:12:34;;;;;;;34.95;20.40;;;;;;;6.90;84.64;99814.00;5032469;28;20017;-73
2023/12/31 00:15:01;;;;;;;40.85;23.95;;;;;;;6.75;84.87;99807.50;5030971;28;20025;-73
2023/12/31 00:17:26;;;;;;;42.67;26.48;;;;;;;6.42;86.62;99802.69;5032411;28;20057;-73
2023/12/31 00:19:52;;;;;;;45.60;26.33;;;;;;;6.62;86.63;99803.56;5051017;28;20119;-73
2023/12/31 00:22:17;;;;;;;42.30;26.33;;;;;;;6.74;85.98;99800.31;5036575;28;20052;-73
2023/12/31 00:24:42;;;;;;;43.92;26.38;;;;;;;6.54;86.67;99799.50;5031987;28;20109;-73
2023/12/31 00:27:08;;;;;;;44.10;25.85;;;;;;;6.46;87.14;99802.94;5041221;28;20029;-73
2023/12/31 00:29:33;;;;;;;41.72;24.50;;;;;;;6.23;87.73;99802.69;5030616;28;20037;-73
2023/12/31 00:31:59;;;;;;;45.50;24.55;;;;;;;6.26;88.81;99804.84;5030725;28;20021;-73
2023/12/31 00:34:25;;;;;;;41.30;25.23;;;;;;;6.26;88.79;99806.81;5040953;28;20036;-73
2023/12/31 00:36:50;;;;;;;41.08;24.75;;;;;;;6.24;88.88;99796.00;5051927;28;20033;-72
2023/12/31 00:39:16;;;;;;;46.30;26.95;;;;;;;6.35;88.50;99796.72;5059492;28;20522;-73
2023/12/31 00:41:41;;;;;;;42.13;26.83;;;;;;;6.50;88.39;99809.53;5051811;28;20029;-73
2023/12/31 00:44:07;;;;;;;106.57;58.85;;;;;;;6.50;88.42;99801.19;5051577;28;20471;-73
2023/12/31 00:46:32;;;;;;;147.55;82.43;;;;;;;6.42;88.47;99802.69;5051804;28;20048;-73
2023/12/31 00:48:58;;;;;;;56.90;32.72;;;;;;;6.15;89.48;99795.00;5051596;28;20433;-73
2023/12/31 00:51:23;;;;;;;44.90;23.52;;;;;;;6.21;88.82;99796.59;5051340;28;20040;-73
2023/12/31 00:53:49;;;;;;;45.03;23.65;;;;;;;6.25;89.05;99794.88;5040713;28;20036;-73
2023/12/31 00:56:14;;;;;;;37.58;21.83;;;;;;;6.41;87.80;99797.47;5030255;28;20040;-73
2023/12/31 00:58:39;;;;;;;39.58;23.52;;;;;;;6.49;87.44;99796.78;5045304;28;20025;-73
2023/12/31 01:01:05;;;;;;;32.97;18.95;;;;;;;6.44;87.05;99791.31;5050455;28;20021;-73
2023/12/31 01:03:30;;;;;;;37.35;21.30;;;;;;;6.41;87.14;99783.56;5051051;28;20094;-73
2023/12/31 01:06:04;;;;;;;37.13;20.92;;;;;;;6.56;86.67;99783.34;5051897;28;20550;-73
2023/12/31 01:08:29;;;;;;;32.38;20.20;;;;;;;6.56;86.52;99797.25;5057919;28;20028;-73
2023/12/31 01:10:55;;;;;;;42.55;26.17;;;;;;;6.67;86.49;99794.31;5070321;28;20016;-72
2023/12/31 01:13:21;;;;;;;43.38;25.95;;;;;;;6.85;85.88;99787.09;5071721;28;20024;-74
2023/12/31 01:15:46;;;;;;;35.47;21.63;;;;;;;6.91;85.47;99782.28;5067237;28;20463;-73
2023/12/31 01:18:11;;;;;;;40.60;22.88;;;;;;;6.98;85.21;99789.09;5050396;28;20029;-74
2023/12/31 01:20:37;;;;;;;37.47;21.98;;;;;;;7.01;84.93;99779.31;5051437;28;20033;-73
2023/12/31 01:23:03;;;;;;;37.78;21.85;;;;;;;7.04;84.67;99781.50;5049893;28;20085;-73
2023/12/31 01:25:34;;;;;;;35.97;21.15;;;;;;;7.08;84.04;99776.97;5051700;28;20025;-74
2023/12/31 01:28:03;;;;;;;36.17;19.98;;;;;;;6.79;85.09;99786.34;5043564;28;20543;-73
2023/12/31 01:30:29;;;;;;;45.30;25.38;;;;;;;6.71;85.67;99779.50;5043621;28;20045;-73
2023/12/31 01:32:54;;;;;;;42.70;22.55;;;;;;;6.59;85.94;99790.25;5050163;28;20029;-74
2023/12/31 01:35:20;;;;;;;34.72;20.70;;;;;;;6.23;87.23;99783.22;5037649;28;20136;-73
2023/12/31 01:37:46;;;;;;;33.88;19.70;;;;;;;6.21;87.72;99782.72;5031350;28;20079;-73
2023/12/31 01:40:12;;;;;;;36.70;20.23;;;;;;;6.06;88.84;99780.94;5031410;28;20029;-73
2023/12/31 01:42:37;;;;;;;34.70;20.27;;;;;;;5.99;89.20;99777.69;5042138;28;20040;-73
2023/12/31 01:45:04;;;;;;;36.10;19.58;;;;;;;6.06;88.45;99780.94;5051266;28;20108;-73
2023/12/31 01:47:32;;;;;;;31.77;18.20;;;;;;;6.00;89.27;99779.34;5050065;28;20025;-73
2023/12/31 01:49:58;;;;;;;41.58;20.52;;;;;;;6.03;89.08;99779.63;5051440;28;20472;-73
2023/12/31 01:52:24;;;;;;;46.17;24.00;;;;;;;6.04;88.69;99786.81;5046982;28;20021;-73
2023/12/31 01:54:54;;;;;;;39.85;22.83;;;;;;;5.96;89.31;99776.34;5030836;28;20056;-73
2023/12/31 01:57:25;;;;;;;37.28;20.88;;;;;;;6.09;89.21;99787.88;5033052;28;20112;-73
2023/12/31 01:59:52;;;;;;;;;;;;;;;6.01;89.22;99783.78;5058953;28;20028;-73
2023/12/31 02:02:18;;;;;;;46.30;21.20;;;;;;;5.82;89.99;99780.94;5069405;28;19920;-73
2023/12/31 02:04:43;;;;;;;36.67;21.75;;;;;;;5.93;90.15;99785.25;5069487;28;20508;-74
2023/12/31 02:07:09;;;;;;;31.27;20.10;;;;;;;5.81;90.48;99779.31;5069443;28;20056;-73
2023/12/31 02:09:34;;;;;;;27.85;17.45;;;;;;;5.81;90.92;99779.31;5069544;28;20079;-73
2023/12/31 02:12:03;;;;;;;26.40;16.60;;;;;;;5.94;90.52;99777.75;5059450;28;20055;-73
2023/12/31 02:14:28;;;;;;;26.48;16.63;;;;;;;5.88;90.90;99782.53;5054955;28;20032;-73
2023/12/31 02:16:54;;;;;;;28.65;17.42;;;;;;;5.63;92.45;99776.16;5054991;28;20029;-73
2023/12/31 02:19:19;;;;;;;37.72;19.15;;;;;;;5.94;91.42;99775.81;5053618;28;20524;-73
2023/12/31 02:21:45;;;;;;;30.73;17.45;;;;;;;5.94;91.23;99773.03;5054921;28;20531;-72
2023/12/31 02:24:14;;;;;;;34.60;18.77;;;;;;;6.10;90.12;99773.69;5054924;28;20088;-71
2023/12/31 02:26:40;;;;;;;33.75;19.60;;;;;;;5.98;90.43;99778.81;5054789;28;20508;-72
2023/12/31 02:29:06;;;;;;;30.50;16.02;;;;;;;6.02;90.18;99785.47;5041875;28;20033;-72
2023/12/31 02:31:33;;;;;;;26.17;18.40;;;;;;;5.71;91.46;99775.50;5074472;28;20062;-71
2023/12/31 02:33:59;;;;;;;27.02;17.25;;;;;;;5.91;90.91;99779.16;5074224;28;20028;-71
2023/12/31 02:36:25;;;;;;;26.20;17.27;;;;;;;5.80;91.51;99772.09;5074083;28;20572;-71
2023/12/31 02:38:50;;;;;;;30.88;17.17;;;;;;;5.80;91.56;99777.66;5072803;28;20025;-71
2023/12/31 02:41:16;;;;;;;27.38;17.05;;;;;;;5.77;91.40;99779.06;5072916;28;20105;-72
2023/12/31 02:43:41;;;;;;;29.88;15.88;;;;;;;5.76;91.73;99769.06;5072699;28;20024;-71
2023/12/31 02:46:07;;;;;;;24.20;15.55;;;;;;;5.91;90.73;99773.59;5068206;28;20083;-72
2023/12/31 02:48:33;;;;;;;25.27;15.70;;;;;;;6.13;89.68;99778.66;5054039;28;20024;-72
2023/12/31 02:50:58;;;;;;;25.77;15.13;;;;;;;6.29;88.90;99770.94;5053832;28;20036;-72
2023/12/31 02:53:24;;;;;;;26.42;17.85;;;;;;;6.43;88.32;99784.91;5052576;28;20029;-72
2023/12/31 02:55:49;;;;;;;26.35;16.50;;;;;;;6.49;87.84;99782.88;5053748;28;20024;-72
2023/12/31 02:58:15;;;;;;;32.13;17.08;;;;;;;6.51;87.37;99780.63;5043884;28;20033;-72
2023/12/31 03:00:41;;;;;;;35.35;21.65;;;;;;;6.37;87.94;99790.84;5061811;28;20028;-72
2023/12/31 03:03:07;;;;;;;36.72;20.42;;;;;;;6.32;88.69;99788.94;5072419;28;20028;-72
2023/12/31 03:05:32;;;;;;;33.92;20.00;;;;;;;6.27;88.05;99787.06;5060222;28;20032;-71
2023/12/31 03:07:58;;;;;;;36.10;20.45;;;;;;;6.36;88.40;99786.41;5053551;28;20029;-72
2023/12/31 03:10:23;;;;;;;32.28;19.45;;;;;;;6.32;88.13;99787.00;5053570;28;20506;-72
2023/12/31 03:12:49;;;;;;;41.25;21.70;;;;;;;6.38;88.22;99781.38;5053439;28;20044;-72
2023/12/31 03:15:14;;;;;;;37.08;21.38;;;;;;;6.25;88.44;99786.53;5053360;28;20028;-71
2023/12/31 03:17:40;;;;;;;33.63;20.35;;;;;;;6.29;88.44;99781.22;5052316;28;20032;-71
2023/12/31 03:20:06;;;;;;;28.52;18.35;;;;;;;6.27;88.57;99786.25;5053409;28;20029;-72
2023/12/31 03:22:32;;;;;;;33.75;18.88;;;;;;;6.14;89.32;99787.78;5050267;28;20029;-71
2023/12/31 03:24:58;;;;;;;34.78;20.08;;;;;;;6.25;88.87;99789.31;5033385;28;20026;-71
2023/12/31 03:27:23;;;;;;;34.58;20.52;;;;;;;6.23;88.66;99790.75;5034208;28;20036;-72
2023/12/31 03:29:49;;;;;;;36.22;22.88;;;;;;;6.19;88.79;99784.97;5059584;28;20025;-72
2023/12/31 03:32:14;;;;;;;47.60;27.13;;;;;;;6.29;88.31;99782.06;5073319;28;20020;-68
2023/12/31 03:34:40;;;;;;;44.58;25.42;;;;;;;6.28;88.52;99772.06;5073142;28;20405;-68
2023/12/31 03:37:06;;;;;;;37.65;24.48;;;;;;;6.34;88.41;99775.59;5071784;28;20066;-69
2023/12/31 03:39:31;;;;;;;44.63;27.45;;;;;;;6.26;88.30;99779.03;5072993;28;20148;-68
2023/12/31 03:41:56;;;;;;;41.92;24.42;;;;;;;6.32;88.22;99786.16;5072870;28;20024;-69
2023/12/31 03:44:22;;;;;;;33.13;17.95;;;;;;;6.18;88.16;99791.66;5059259;28;20074;-68
2023/12/31 03:46:47;;;;;;;28.08;17.17;;;;;;;6.02;89.01;99791.81;5052784;28;20025;-68
2023/12/31 03:49:13;;;;;;;26.23;16.05;;;;;;;5.55;91.26;99798.97;5052859;28;20520;-68
2023/12/31 03:51:38;;;;;;;27.88;16.98;;;;;;;5.32;92.26;99791.16;5051408;28;20071;-69
2023/12/31 03:54:05;;;;;;;24.38;15.48;;;;;;;5.37;92.34;99787.50;5053165;28;20021;-69
2023/12/31 03:56:31;;;;;;;28.10;16.90;;;;;;;5.45;91.69;99788.81;5053406;28;20021;-68
2023/12/31 03:58:57;;;;;;;25.70;15.85;;;;;;;5.51;91.49;99796.00;5036505;28;20049;-68
2023/12/31 04:01:22;;;;;;;27.13;16.58;;;;;;;5.31;93.19;99792.28;5033167;28;20029;-68
2023/12/31 04:03:48;;;;;;;35.03;17.70;;;;;;;5.33;92.96;99800.31;5033156;28;20033;-68
2023/12/31 04:06:13;;;;;;;26.92;17.17;;;;;;;5.01;93.83;99801.69;5042590;28;20159;-68
2023/12/31 04:08:40;;;;;;;30.88;17.58;;;;;;;4.87;95.30;99791.28;5052830;28;20483;-69
2023/12/31 04:11:06;;;;;;;29.50;17.20;;;;;;;5.06;95.28;99796.09;5052946;28;20055;-68
2023/12/31 04:13:32;;;;;;;30.98;17.35;;;;;;;5.13;94.41;99793.84;5052835;28;20025;-68
2023/12/31 04:15:57;;;;;;;35.47;19.48;;;;;;;5.20;94.31;99805.44;5052849;28;20032;-69
2023/12/31 04:18:22;;;;;;;30.23;19.45;;;;;;;5.24;94.34;99800.09;5052669;28;20024;-68
2023/12/31 04:20:48;;;;;;;31.15;19.60;;;;;;;4.92;96.23;99804.28;5051554;28;20067;-69
2023/12/31 04:23:14;;;;;;;34.75;18.73;;;;;;;5.01;96.15;99807.25;5052658;28;20044;-69
2023/12/31 04:25:39;;;;;;;31.83;18.60;;;;;;;4.76;96.62;99811.88;5052780;28;20040;-68
2023/12/31 04:28:05;;;;;;;37.85;19.77;;;;;;;5.00;96.56;99800.84;5044959;28;20029;-68
2023/12/31 04:30:30;;;;;;;36.70;18.75;;;;;;;5.02;96.09;99808.91;5056390;28;20077;-69
2023/12/31 04:32:56;;;;;;;33.70;18.65;;;;;;;5.20;95.27;99812.91;5065553;28;20021;-68
2023/12/31 04:35:21;;;;;;;39.30;20.13;;;;;;;5.27;95.10;99809.81;5031462;28;20025;-68
2023/12/31 04:37:47;;;;;;;35.67;20.10;;;;;;;5.17;96.26;99817.09;5032439;28;20025;-68
2023/12/31 04:40:12;;;;;;;34.20;18.13;;;;;;;5.29;95.00;99822.28;5032521;28;20017;-68
2023/12/31 04:42:38;;;;;;;30.20;18.08;;;;;;;5.14;94.82;99805.78;5032080;28;20445;-72
2023/12/31 04:45:07;;;;;;;28.45;17.50;;;;;;;4.40;97.83;99809.31;5031830;28;20099;-71
2023/12/31 04:47:33;;;;;;;27.80;16.90;;;;;;;4.75;98.08;99812.97;5031722;28;20021;-71
2023/12/31 04:49:59;;;;;;;33.20;19.55;;;;;;;4.97;97.24;99801.44;5030514;28;20017;-71
2023/12/31 04:52:24;;;;;;;29.40;17.40;;;;;;;5.07;96.45;99803.34;5034428;28;20056;-71
2023/12/31 04:54:51;;;;;;;37.42;19.15;;;;;;;5.19;96.17;99808.47;5036021;28;20052;-71
2023/12/31 04:57:16;;;;;;;34.90;20.25;;;;;;;5.10;95.78;99813.84;5031687;28;20021;-71
2023/12/31 04:59:42;;;;;;;41.55;25.40;;;;;;;5.09;96.15;99809.41;5054715;28;20108;-72
2023/12/31 05:02:07;;;;;;;48.88;30.13;;;;;;;5.18;95.74;99809.59;5051706;28;20178;-69
2023/12/31 05:04:33;;;;;;;44.30;26.27;;;;;;;4.70;98.32;99801.91;5050241;28;20489;-72
2023/12/31 05:06:59;;;;;;;44.95;25.30;;;;;;;4.90;97.95;99812.88;5049288;28;20390;-71
2023/12/31 05:09:24;;;;;;;37.58;22.48;;;;;;;4.85;98.38;99810.16;5051417;28;20025;-71
2023/12/31 05:11:50;;;;;;;38.13;23.27;;;;;;;4.81;97.89;99811.81;5051253;28;20021;-71
2023/12/31 05:14:15;;;;;;;41.85;26.75;;;;;;;3.96;100.00;99814.47;5049711;28;20497;-72
2023/12/31 05:16:41;;;;;;;41.15;25.60;;;;;;;4.44;100.00;99818.69;5051146;28;20025;-72
2023/12/31 05:19:06;;;;;;;48.42;28.60;;;;;;;4.53;100.00;99818.94;5051127;28;20112;-72
2023/12/31 05:21:32;;;;;;;41.80;24.17;;;;;;;4.56;100.00;99830.25;5049040;28;20025;-71
2023/12/31 05:23:57;;;;;;;35.45;20.45;;;;;;;4.28;100.00;99829.03;5050931;28;20053;-72
2023/12/31 05:26:23;;;;;;;32.47;20.35;;;;;;;4.39;100.00;99835.38;5044468;28;20035;-70
2023/12/31 05:28:48;;;;;;;49.22;26.13;;;;;;;4.49;100.00;99832.53;5041557;28;20852;-70
2023/12/31 05:31:14;;;;;;;55.75;30.80;;;;;;;4.47;100.00;99830.03;5040395;28;20029;-70
2023/12/31 05:33:41;;;;;;;95.55;49.13;;;;;;;4.49;100.00;99841.66;5040937;28;20459;-71
2023/12/31 05:36:06;;;;;;;73.07;40.03;;;;;;;4.67;100.00;99831.06;5047192;28;20107;-71
2023/12/31 05:38:32;;;;;;;66.45;34.92;;;;;;;4.84;99.97;99824.28;5050828;28;20477;-73
2023/12/31 05:40:57;;;;;;;70.70;36.45;;;;;;;4.85;99.42;99831.47;5050780;28;20028;-72
2023/12/31 05:43:23;;;;;;;69.72;38.30;;;;;;;4.92;99.50;99818.13;5049486;28;20025;-72
2023/12/31 05:45:48;;;;;;;101.68;43.85;;;;;;;4.98;98.81;99825.28;5048805;28;20035;-72
2023/12/31 05:48:14;;;;;;;95.88;42.15;;;;;;;5.03;98.53;99822.47;5046122;28;20032;-72
2023/12/31 05:50:39;;;;;;;66.85;34.97;;;;;;;5.02;98.46;99820.84;5039191;28;20468;-71
2023/12/31 05:53:05;;;;;;;48.22;29.48;;;;;;;4.78;99.22;99827.09;5038420;28;20405;-72
2023/12/31 05:55:31;;;;;;;43.00;27.50;;;;;;;4.68;99.62;99820.78;5040039;28;20486;-74
2023/12/31 05:57:57;;;;;;;48.38;27.65;;;;;;;4.84;98.92;99825.13;5040706;28;20465;-74
2023/12/31 06:00:23;;;;;;;45.92;26.58;;;;;;;4.60;100.00;99825.00;5058976;28;20028;-73
2023/12/31 06:02:49;;;;;;;51.15;28.05;;;;;;;4.84;98.22;99816.81;5070829;28;20013;-74
2023/12/31 06:05:15;;;;;;;41.70;26.05;;;;;;;4.81;98.88;99830.41;5069448;28;20397;-75
2023/12/31 06:07:41;;;;;;;43.22;26.08;;;;;;;4.56;100.00;99835.81;5050377;28;20479;-74
2023/12/31 06:10:07;;;;;;;46.60;28.00;;;;;;;4.53;100.00;99836.38;5050583;28;20095;-75
2023/12/31 06:12:33;;;;;;;45.67;27.20;;;;;;;4.64;99.66;99817.75;5049300;28;20032;-75
2023/12/31 06:15:06;;;;;;;40.17;27.13;;;;;;;4.76;99.72;99845.13;5044308;28;20454;-76
2023/12/31 06:17:35;;;;;;;35.22;23.25;;;;;;;4.07;100.00;99837.44;5030656;28;20067;-76
2023/12/31 06:20:01;;;;;;;44.45;24.75;;;;;;;4.22;100.00;99834.59;5030485;28;20029;-76
2023/12/31 06:22:26;;;;;;;51.10;28.25;;;;;;;4.39;100.00;99836.16;5030362;28;20148;-75
2023/12/31 06:24:52;;;;;;;52.28;25.90;;;;;;;4.59;100.00;99846.34;5031135;28;20030;-74
2023/12/31 06:27:17;;;;;;;105.20;57.95;;;;;;;4.72;100.00;99846.81;5030172;28;20083;-75
2023/12/31 06:29:43;;;;;;;71.55;41.22;;;;;;;4.72;100.00;99844.06;5054388;28;20028;-76
2023/12/31 06:32:08;;;;;;;85.88;45.28;;;;;;;4.80;100.00;99850.94;5069136;28;20036;-76
2023/12/31 06:34:34;;;;;;;97.22;50.50;;;;;;;4.90;100.00;99851.69;5070541;28;20039;-76
2023/12/31 06:36:59;;;;;;;79.45;45.92;;;;;;;4.99;100.00;99856.63;5056332;28;20497;-76
2023/12/31 06:39:25;;;;;;;82.65;43.83;;;;;;;4.57;100.00;99853.28;5050270;28;20104;-73
2023/12/31 06:41:50;;;;;;;56.10;30.73;;;;;;;4.52;100.00;99859.66;5050285;28;20029;-73
2023/12/31 06:44:16;;;;;;;82.32;44.10;;;;;;;4.67;100.00;99875.38;5048933;28;20033;-74
2023/12/31 06:46:42;;;;;;;66.60;38.35;;;;;;;4.62;100.00;99867.09;5050321;28;20040;-74
2023/12/31 06:49:07;;;;;;;69.90;40.78;;;;;;;4.77;100.00;99878.09;5050643;28;20059;-73
2023/12/31 06:51:33;;;;;;;64.60;35.60;;;;;;;4.98;100.00;99879.91;5040153;28;20028;-74
2023/12/31 06:53:59;;;;;;;55.75;34.00;;;;;;;5.10;100.00;99877.63;5049040;28;20039;-75
2023/12/31 06:56:24;;;;;;;55.65;33.95;;;;;;;5.08;100.00;99879.00;5050239;28;20417;-73
2023/12/31 06:58:50;;;;;;;63.83;34.80;;;;;;;5.14;100.00;99878.69;5049545;28;20405;-74
2023/12/31 07:01:16;;;;;;;58.45;34.63;;;;;;;5.14;100.00;99883.41;5058092;28;20025;-72
2023/12/31 07:03:43;;;;;;;57.53;34.47;;;;;;;5.18;100.00;99876.97;5034349;28;20041;-75
2023/12/31 07:06:08;;;;;;;50.50;30.40;;;;;;;5.18;100.00;99874.19;5033823;28;20073;-77
2023/12/31 07:08:34;;;;;;;47.42;25.85;;;;;;;5.09;100.00;99880.66;5046796;28;20813;-74
2023/12/31 07:11:00;;;;;;;38.20;24.30;;;;;;;4.70;100.00;99888.66;5040865;28;20037;-74
2023/12/31 07:13:25;;;;;;;36.60;22.02;;;;;;;4.81;100.00;99881.09;5033634;28;20033;-72
2023/12/31 07:15:51;;;;;;;53.45;21.80;;;;;;;4.98;100.00;99889.03;5033593;28;20465;-71
2023/12/31 07:18:16;;;;;;;34.42;21.63;;;;;;;4.73;100.00;99888.09;5032663;28;20029;-76
2023/12/31 07:20:41;;;;;;;83.90;44.53;;;;;;;4.53;100.00;99890.97;5045725;28;20033;-75
2023/12/31 07:23:07;;;;;;;103.65;50.03;;;;;;;4.34;100.00;99897.97;5033222;28;20045;-75
2023/12/31 07:25:33;;;;;;;93.97;50.65;;;;;;;4.34;100.00;99895.22;5046624;28;20429;-75
2023/12/31 07:27:59;;;;;;;44.45;26.40;;;;;;;4.54;100.00;99901.75;5037581;28;20147;-80
2023/12/31 07:30:25;;;;;;;45.50;25.98;;;;;;;4.57;100.00;99908.69;5033615;28;20445;-76
2023/12/31 07:32:52;;;;;;;68.70;31.77;;;;;;;4.69;100.00;99905.56;5032095;28;20017;-73
2023/12/31 07:35:17;;;;;;;72.90;37.78;;;;;;;4.74;100.00;99911.09;5042971;28;20021;-72
2023/12/31 07:37:43;;;;;;;50.15;28.80;;;;;;;4.77;100.00;99903.06;5053273;28;20028;-72
2023/12/31 07:40:10;;;;;;;47.03;28.33;;;;;;;4.96;100.00;99901.56;5053552;28;20100;-71
2023/12/31 07:42:37;;;;;;;44.88;25.17;;;;;;;5.17;100.00;99916.94;5052090;28;20024;-73
2023/12/31 07:45:07;;;;;;;52.85;28.80;;;;;;;5.29;100.00;99905.47;5038700;28;20521;-71
2023/12/31 07:47:35;;;;;;;40.13;24.33;;;;;;;5.57;100.00;99910.53;5042075;28;20087;-73
2023/12/31 07:50:02;;;;;;;46.15;24.02;;;;;;;5.60;100.00;99909.94;5044482;28;20032;-72
2023/12/31 07:52:28;;;;;;;51.92;30.67;;;;;;;5.68;100.00;99911.28;5050611;28;20063;-73
2023/12/31 07:54:54;;;;;;;56.58;33.42;;;;;;;5.68;100.00;99911.28;5041714;28;20017;-73
2023/12/31 07:57:19;;;;;;;48.28;30.42;;;;;;;5.75;100.00;99931.19;5030548;28;20017;-73
2023/12/31 07:59:46;;;;;;;48.70;29.20;;;;;;;5.74;100.00;99930.38;5035091;28;20022;-70
2023/12/31 08:02:11;;;;;;;41.03;26.00;;;;;;;5.67;100.00;99929.03;5032024;28;20048;-73
2023/12/31 08:04:37;;;;;;;52.20;25.90;;;;;;;5.61;100.00;99919.94;5032573;28;20561;-72
2023/12/31 08:07:03;;;;;;;37.95;23.20;;;;;;;5.47;100.00;99939.19;5041543;28;20025;-69
2023/12/31 08:09:29;;;;;;;37.60;20.98;;;;;;;5.50;100.00;99933.06;5051293;28;20023;-72
2023/12/31 08:11:55;;;;;;;31.50;19.00;;;;;;;5.71;100.00;99936.50;5050946;28;20107;-73
2023/12/31 08:14:21;;;;;;;49.67;28.05;;;;;;;5.53;100.00;99934.41;5045888;28;20028;-74
2023/12/31 08:16:46;;;;;;;46.03;28.83;;;;;;;5.55;100.00;99943.28;5037610;28;20025;-75
2023/12/31 08:19:12;;;;;;;53.53;27.50;;;;;;;5.44;100.00;99937.00;5034990;28;20029;-75
2023/12/31 08:21:37;;;;;;;57.50;31.88;;;;;;;5.60;100.00;99937.72;5035072;28;20041;-75
2023/12/31 08:24:03;;;;;;;50.25;30.50;;;;;;;5.56;100.00;99942.19;5040618;28;20061;-77
2023/12/31 08:26:28;;;;;;;35.15;21.92;;;;;;;5.72;100.00;99943.72;5046557;28;20098;-73
2023/12/31 08:28:54;;;;;;;31.92;19.60;;;;;;;5.69;100.00;99929.56;5047747;28;20128;-75
2023/12/31 08:31:20;;;;;;;35.20;20.05;;;;;;;5.86;100.00;99937.47;5031661;28;20017;-75
2023/12/31 08:33:47;;;;;;;32.63;22.17;;;;;;;5.93;100.00;99931.59;5050663;28;20057;-74
2023/12/31 08:36:12;;;;;;;30.77;19.60;;;;;;;5.88;100.00;99926.91;5050338;28;20032;-73
2023/12/31 08:38:37;;;;;;;33.85;21.25;;;;;;;6.02;100.00;99930.69;5038574;28;20045;-73
2023/12/31 08:41:03;;;;;;;51.60;27.33;;;;;;;6.26;100.00;99927.09;5043553;28;20028;-71
2023/12/31 08:43:28;;;;;;;52.90;26.40;;;;;;;6.44;99.10;99922.72;5051279;28;20035;-73
2023/12/31 08:45:54;;;;;;;42.97;22.65;;;;;;;6.30;100.00;99925.41;5045767;28;20036;-73
2023/12/31 08:48:21;;;;;;;36.05;21.90;;;;;;;6.57;99.61;99935.09;5038593;28;20031;-72
2023/12/31 08:50:47;;;;;;;45.78;23.75;;;;;;;6.73;98.31;99935.72;5041652;28;20060;-73
2023/12/31 08:53:12;;;;;;;36.65;22.13;;;;;;;6.65;97.17;99924.44;5037676;28;20029;-76
2023/12/31 08:55:38;;;;;;;32.75;22.20;;;;;;;6.73;96.79;99924.59;5035816;28;20454;-76
2023/12/31 08:58:03;;;;;;;36.10;19.92;;;;;;;6.84;95.45;99930.84;5033570;28;20040;-73
2023/12/31 09:00:30;;;;;;;36.10;21.98;;;;;;;6.98;94.73;99918.97;5032928;28;20036;-75
2023/12/31 09:02:56;;;;;;;30.98;20.95;;;;;;;7.02;94.41;99912.53;5032070;28;20041;-74
2023/12/31 09:05:22;;;;;;;37.55;21.52;;;;;;;7.09;94.72;99914.91;5029749;28;20033;-74
2023/12/31 09:07:48;;;;;;;38.67;24.35;;;;;;;7.26;94.19;99910.81;5033377;28;20557;-72
2023/12/31 09:10:14;;;;;;;35.15;24.58;;;;;;;7.37;93.94;99909.50;5033896;28;20064;-71
2023/12/31 09:12:39;;;;;;;42.88;26.40;;;;;;;7.50;93.73;99909.88;5033087;28;20048;-72
2023/12/31 09:15:06;;;;;;;38.78;24.80;;;;;;;7.62;92.35;99901.88;5033890;28;20109;-74
2023/12/31 09:17:32;;;;;;;46.20;26.85;;;;;;;7.70;92.11;99895.56;5044872;28;20513;-77
2023/12/31 09:19:58;;;;;;;44.67;26.80;;;;;;;7.62;91.30;99896.31;5029552;28;20094;-76
2023/12/31 09:22:23;;;;;;;44.53;25.50;;;;;;;7.56;92.30;99887.22;5031903;28;20040;-72
2023/12/31 09:24:51;;;;;;;41.25;26.73;;;;;;;7.71;91.94;99890.84;5030214;28;20049;-72
2023/12/31 09:27:18;;;;;;;47.50;29.10;;;;;;;7.71;91.53;99876.94;5031400;28;20033;-73
2023/12/31 09:29:44;;;;;;;46.42;25.73;;;;;;;7.89;91.20;99889.13;5043232;28;20036;-74
2023/12/31 09:32:09;;;;;;;51.00;28.05;;;;;;;7.96;90.61;99883.16;5044493;28;20052;-73
2023/12/31 09:34:35;;;;;;;42.72;24.60;;;;;;;8.02;89.79;99879.13;5027091;28;20026;-70
2023/12/31 09:37:00;;;;;;;46.75;24.98;;;;;;;7.94;89.50;99877.06;5028264;28;20426;-71
2023/12/31 09:39:25;;;;;;;38.20;27.05;;;;;;;7.97;87.91;99868.94;5030660;28;20079;-71
2023/12/31 09:42:01;;;;;;;42.50;28.08;;;;;;;7.67;88.70;99871.13;5047774;28;20016;-72
2023/12/31 09:44:27;;;;;;;43.97;26.50;;;;;;;7.78;90.57;99868.97;5046381;28;20025;-70
2023/12/31 09:47:04;;;;;;;43.75;28.33;;;;;;;8.04;87.26;99870.47;5048003;28;20044;-71
2023/12/31 09:49:31;;;;;;;49.35;27.75;;;;;;;8.23;86.65;99860.06;5039186;28;20462;-74
2023/12/31 09:51:59;;;;;;;42.28;27.17;;;;;;;8.75;85.32;99861.78;5028042;28;20052;-72
2023/12/31 09:54:24;;;;;;;45.83;27.98;;;;;;;9.06;83.54;99857.47;5027156;28;20028;-72
2023/12/31 09:56:51;;;;;;;52.15;31.17;;;;;;;9.27;82.27;99857.78;5036958;28;20029;-72
2023/12/31 09:59:18;;;;;;;40.92;25.77;;;;;;;9.56;80.09;99850.94;5026075;28;20057;-73
2023/12/31 10:01:44;;;;;;;50.70;29.45;;;;;;;9.82;80.54;99850.28;5025837;28;20044;-70
2023/12/31 10:04:11;;;;;;;43.72;27.55;;;;;;;10.04;78.71;99835.41;5026369;28;20029;-73
2023/12/31 10:06:38;;;;;;;43.63;27.38;;;;;;;10.02;78.32;99825.72;5047376;28;20025;-70
2023/12/31 10:09:06;;;;;;;50.00;27.95;;;;;;;10.03;77.37;99824.56;5047755;28;20531;-70
2023/12/31 10:11:32;;;;;;;44.15;27.92;;;;;;;9.43;78.76;99829.50;5047498;28;20512;-69
2023/12/31 10:13:58;;;;;;;50.08;30.80;;;;;;;9.49;80.62;99829.06;5039507;28;20043;-69
2023/12/31 10:16:33;;;;;;;35.35;22.08;;;;;;;9.98;78.06;99825.53;5027615;28;20017;-70
2023/12/31 10:18:59;;;;;;;41.95;22.92;;;;;;;10.28;76.55;99828.59;5026821;28;20033;-70
2023/12/31 10:21:25;;;;;;;41.35;23.92;;;;;;;10.70;75.68;99822.63;5027252;28;20021;-70
2023/12/31 10:23:51;;;;;;;34.33;19.73;;;;;;;10.62;73.82;99818.66;5027376;28;20606;-74
2023/12/31 10:26:17;;;;;;;25.48;15.75;;;;;;;10.60;74.64;99811.75;5029056;28;20026;-75
2023/12/31 10:28:42;;;;;;;28.95;17.08;;;;;;;10.91;72.95;99811.59;5029958;28;20029;-76
2023/12/31 10:31:08;;;;;;;24.73;16.20;;;;;;;11.09;72.69;99806.81;5038330;28;20083;-73
2023/12/31 10:33:36;;;;;;;31.30;16.23;;;;;;;11.24;72.00;99807.47;5051923;28;20039;-73
2023/12/31 10:36:05;;;;;;;26.10;15.60;;;;;;;11.49;72.21;99802.97;5054077;28;20056;-73
2023/12/31 10:38:47;;;;;;;37.28;18.15;;;;;;;11.65;70.98;99794.84;5052687;28;20107;-73
2023/12/31 10:41:21;;;;;;;27.70;17.33;;;;;;;11.87;70.37;99787.38;5052716;28;20025;-73
2023/12/31 10:43:48;;;;;;;34.00;19.45;;;;;;;11.70;69.85;99785.44;5053848;28;20032;-73
2023/12/31 10:46:18;;;;;;;22.55;16.00;;;;;;;11.68;69.95;99781.34;5047754;28;20021;-72
2023/12/31 10:48:56;;;;;;;23.38;16.10;;;;;;;11.85;69.57;99770.06;5045031;28;20079;-72
2023/12/31 10:51:26;;;;;;;38.35;26.10;;;;;;;12.08;68.26;99779.06;5043690;28;20044;-71
2023/12/31 10:53:55;;;;;;;26.52;16.50;;;;;;;11.97;66.54;99766.53;5034435;28;20044;-74
2023/12/31 10:56:21;;;;;;;22.23;15.95;;;;;;;11.94;66.85;99756.84;5033824;28;20033;-73
2023/12/31 10:58:47;;;;;;;25.17;15.85;;;;;;;11.82;67.43;99755.91;5034797;28;20429;-73
2023/12/31 11:01:16;;;;;;;41.33;32.17;;;;;;;11.84;67.41;99748.81;5038825;28;20070;-72
2023/12/31 11:03:42;;;;;;;22.98;16.67;;;;;;;11.73;67.05;99745.53;5041022;28;20033;-73
2023/12/31 11:06:09;;;;;;;25.17;15.00;;;;;;;11.63;66.66;99743.09;5036300;28;20033;-73
2023/12/31 11:08:37;;;;;;;25.83;13.25;;;;;;;11.61;66.80;99743.47;5041133;28;20098;-71
2023/12/31 11:11:03;;;;;;;24.90;16.80;;;;;;;11.68;66.85;99733.69;5041105;28;20505;-82
2023/12/31 11:13:31;;;;;;;29.02;14.85;;;;;;;11.79;67.12;99733.00;5037326;28;20045;-75
2023/12/31 11:16:01;;;;;;;25.90;13.50;;;;;;;11.77;65.43;99726.09;5039901;28;20056;-74